| time (UTC) | temp F | wind direction | speed MPH | gust MPH | rain 1hr in | rain 24hr in | rain mn in | humidity % | barometer mb |
| 20260510130047 | 50 | 232 | 2.0 | 8.0 | 0.00 | 0.12 | 0.00 | 57 | 1006.5 |
| 20260510125543 | 50 | 123 | 2.0 | 8.0 | 0.00 | 0.12 | 0.00 | 55 | 1006.6 |
| 20260510125042 | 50 | 119 | 3.0 | 8.0 | 0.00 | 0.12 | 0.00 | 53 | 1006.7 |
| 20260510124608 | 50 | 222 | 2.0 | 8.0 | 0.00 | 0.12 | 0.00 | 55 | 1006.6 |
| 20260510124043 | 50 | 153 | 3.0 | 8.0 | 0.00 | 0.12 | 0.00 | 55 | 1006.6 |
| 20260510123543 | 49 | 209 | 3.0 | 8.0 | 0.00 | 0.12 | 0.00 | 54 | 1006.6 |
| 20260510123049 | 49 | 199 | 4.0 | 11.0 | 0.00 | 0.12 | 0.00 | 55 | 1006.6 |
| 20260510122546 | 49 | 215 | 3.0 | 11.0 | 0.00 | 0.12 | 0.00 | 55 | 1006.6 |
| 20260510122042 | 49 | 253 | 2.0 | 9.0 | 0.00 | 0.12 | 0.00 | 55 | 1006.6 |
| 20260510121550 | 49 | 155 | 4.0 | 9.0 | 0.00 | 0.12 | 0.00 | 56 | 1006.6 |
| 20260510121043 | 49 | 249 | 2.0 | 12.0 | 0.00 | 0.12 | 0.00 | 57 | 1006.5 |
| 20260510120543 | 48 | 194 | 4.0 | 13.0 | 0.00 | 0.12 | 0.00 | 56 | 1006.5 |
| 20260510120051 | 48 | 221 | 6.0 | 13.0 | 0.00 | 0.12 | 0.00 | 56 | 1006.5 |
| 20260510115543 | 48 | 229 | 2.0 | 10.0 | 0.00 | 0.12 | 0.00 | 59 | 1006.5 |
| 20260510115045 | 47 | 160 | 3.0 | 11.0 | 0.00 | 0.12 | 0.00 | 57 | 1006.5 |
| 20260510114551 | 47 | 165 | 4.0 | 11.0 | 0.00 | 0.12 | 0.00 | 58 | 1006.4 |
| 20260510114043 | 47 | 210 | 3.0 | 14.0 | 0.00 | 0.12 | 0.00 | 59 | 1006.6 |
| 20260510113546 | 47 | 198 | 7.0 | 14.0 | 0.00 | 0.12 | 0.00 | 58 | 1006.6 |
| 20260510113100 | 47 | 211 | 6.0 | 13.0 | 0.00 | 0.12 | 0.00 | 56 | 1006.5 |
| 20260510112543 | 47 | 139 | 5.0 | 13.0 | 0.00 | 0.12 | 0.00 | 56 | 1006.6 |
| 20260510112043 | 47 | 202 | 7.0 | 13.0 | 0.00 | 0.12 | 0.00 | 56 | 1006.7 |
| 20260510111606 | 47 | 138 | 6.0 | 12.0 | 0.00 | 0.12 | 0.00 | 56 | 1006.6 |
| 20260510111043 | 47 | 146 | 5.0 | 12.0 | 0.00 | 0.12 | 0.00 | 55 | 1006.6 |
| 20260510110546 | 47 | 167 | 5.0 | 12.0 | 0.00 | 0.12 | 0.00 | 54 | 1006.7 |
| 20260510110055 | 47 | 123 | 7.0 | 12.0 | 0.00 | 0.12 | 0.00 | 54 | 1006.7 |
| 20260510105543 | 47 | 165 | 6.0 | 10.0 | 0.00 | 0.12 | 0.00 | 54 | 1006.8 |
| 20260510105043 | 47 | 172 | 5.0 | 10.0 | 0.00 | 0.12 | 0.00 | 54 | 1006.6 |
| 20260510104603 | 47 | 111 | 3.0 | 8.0 | 0.00 | 0.12 | 0.00 | 55 | 1006.6 |
| 20260510104043 | 47 | 169 | 4.0 | 8.0 | 0.00 | 0.12 | 0.00 | 54 | 1006.6 |
| 20260510103542 | 47 | 138 | 0.0 | 9.0 | 0.00 | 0.12 | 0.00 | 55 | 1006.6 |
| 20260510103050 | 47 | 232 | 3.0 | 9.0 | 0.00 | 0.12 | 0.00 | 54 | 1006.6 |
| 20260510102543 | 47 | 128 | 4.0 | 10.0 | 0.00 | 0.12 | 0.00 | 54 | 1006.5 |
| 20260510102043 | 47 | 117 | 5.0 | 10.0 | 0.00 | 0.12 | 0.00 | 54 | 1006.5 |
| 20260510101554 | 47 | 136 | 6.0 | 10.0 | 0.00 | 0.12 | 0.00 | 54 | 1006.5 |
| 20260510101043 | 47 | 106 | 3.0 | 11.0 | 0.00 | 0.12 | 0.00 | 55 | 1006.5 |
| 20260510100546 | 47 | 139 | 4.0 | 12.0 | 0.00 | 0.12 | 0.00 | 54 | 1006.5 |
| 20260510100059 | 48 | 148 | 6.0 | 12.0 | 0.00 | 0.12 | 0.00 | 53 | 1006.6 |
| 20260510095543 | 48 | 161 | 4.0 | 13.0 | 0.00 | 0.12 | 0.00 | 55 | 1006.6 |
| 20260510095046 | 48 | 158 | 1.0 | 13.0 | 0.00 | 0.12 | 0.00 | 56 | 1006.6 |
| 20260510094552 | 48 | 168 | 7.0 | 13.0 | 0.00 | 0.12 | 0.00 | 56 | 1006.6 |
| 20260510094044 | 48 | 113 | 3.0 | 8.0 | 0.00 | 0.12 | 0.00 | 57 | 1006.6 |
| 20260510093543 | 48 | 91 | 3.0 | 7.0 | 0.00 | 0.12 | 0.00 | 57 | 1006.6 |
| 20260510093053 | 48 | 154 | 3.0 | 7.0 | 0.00 | 0.12 | 0.00 | 56 | 1006.7 |
| 20260510092544 | 48 | 132 | 3.0 | 10.0 | 0.00 | 0.12 | 0.00 | 58 | 1006.5 |
| 20260510092048 | 48 | 109 | 4.0 | 10.0 | 0.00 | 0.12 | 0.00 | 57 | 1006.6 |
| 20260510091602 | 48 | 109 | 6.0 | 9.0 | 0.00 | 0.12 | 0.00 | 58 | 1006.5 |
| 20260510091040 | 47 | 217 | 3.0 | 9.0 | 0.00 | 0.12 | 0.00 | 59 | 1006.5 |
| 20260510090543 | 47 | 105 | 4.0 | 9.0 | 0.00 | 0.12 | 0.00 | 60 | 1006.6 |
| 20260510090100 | 47 | 118 | 3.0 | 9.0 | 0.00 | 0.12 | 0.00 | 59 | 1006.6 |
| 20260510085543 | 47 | 146 | 3.0 | 7.0 | 0.00 | 0.12 | 0.00 | 59 | 1006.7 |
| 20260510085042 | 47 | 124 | 2.0 | 8.0 | 0.00 | 0.12 | 0.00 | 59 | 1006.6 |
| 20260510084556 | 47 | 115 | 2.0 | 9.0 | 0.00 | 0.12 | 0.00 | 59 | 1006.6 |
| 20260510084042 | 47 | 182 | 4.0 | 9.0 | 0.00 | 0.12 | 0.00 | 58 | 1006.7 |
| 20260510083542 | 47 | 119 | 3.0 | 7.0 | 0.00 | 0.12 | 0.00 | 59 | 1006.7 |
| 20260510083051 | 47 | 159 | 1.0 | 10.0 | 0.00 | 0.12 | 0.00 | 60 | 1006.6 |
| 20260510082541 | 47 | 153 | 3.0 | 10.0 | 0.00 | 0.12 | 0.00 | 59 | 1006.6 |
| 20260510082043 | 47 | 113 | 6.0 | 10.0 | 0.00 | 0.12 | 0.00 | 57 | 1006.5 |
| 20260510081550 | 48 | 111 | 5.0 | 13.0 | 0.00 | 0.12 | 0.00 | 57 | 1006.5 |
| 20260510081043 | 48 | 119 | 6.0 | 13.0 | 0.00 | 0.12 | 0.00 | 59 | 1006.5 |
| 20260510080542 | 48 | 119 | 7.0 | 12.0 | 0.00 | 0.12 | 0.00 | 58 | 1006.6 |
| 20260510080059 | 48 | 113 | 7.0 | 13.0 | 0.00 | 0.12 | 0.00 | 59 | 1006.5 |
| 20260510075543 | 48 | 168 | 6.0 | 13.0 | 0.00 | 0.12 | 0.00 | 60 | 1006.5 |
| 20260510075043 | 47 | 115 | 3.0 | 7.0 | 0.00 | 0.12 | 0.00 | 63 | 1006.5 |
| 20260510074550 | 46 | 119 | 4.0 | 7.0 | 0.00 | 0.12 | 0.00 | 62 | 1006.7 |
| 20260510074045 | 46 | 105 | 3.0 | 10.0 | 0.00 | 0.12 | 0.00 | 63 | 1006.7 |
| 20260510073542 | 46 | 91 | 5.0 | 10.0 | 0.00 | 0.12 | 0.00 | 62 | 1006.8 |
| 20260510073051 | 46 | 128 | 4.0 | 9.0 | 0.00 | 0.12 | 0.00 | 61 | 1006.9 |
| 20260510072542 | 46 | 130 | 4.0 | 9.0 | 0.00 | 0.12 | 0.00 | 61 | 1006.9 |
| 20260510072043 | 46 | 107 | 2.0 | 6.0 | 0.00 | 0.12 | 0.00 | 64 | 1006.9 |
| 20260510071550 | 46 | 109 | 2.0 | 7.0 | 0.00 | 0.12 | 0.00 | 63 | 1006.9 |
| 20260510071042 | 46 | 98 | 3.0 | 7.0 | 0.00 | 0.12 | 0.00 | 63 | 1006.9 |
| 20260510070542 | 46 | 99 | 3.0 | 8.0 | 0.00 | 0.12 | 0.00 | 63 | 1007.0 |
| 20260510070057 | 46 | 101 | 3.0 | 9.0 | 0.00 | 0.12 | 0.00 | 63 | 1007.0 |
| 20260510065542 | 46 | 117 | 3.0 | 9.0 | 0.00 | 0.12 | 0.00 | 63 | 1007.0 |
| 20260510065041 | 46 | 105 | 5.0 | 9.0 | 0.00 | 0.12 | 0.00 | 63 | 1007.0 |
| 20260510064607 | 46 | 98 | 5.0 | 10.0 | 0.00 | 0.12 | 0.00 | 62 | 1007.0 |
| 20260510064042 | 46 | 86 | 6.0 | 10.0 | 0.00 | 0.12 | 0.00 | 62 | 1006.9 |
| 20260510063543 | 46 | 117 | 4.0 | 10.0 | 0.00 | 0.12 | 0.00 | 64 | 1007.0 |
| 20260510063052 | 46 | 107 | 4.0 | 10.0 | 0.00 | 0.12 | 0.00 | 64 | 1006.9 |
| 20260510062545 | 46 | 104 | 5.0 | 12.0 | 0.00 | 0.12 | 0.00 | 63 | 1007.0 |
| 20260510062042 | 45 | 114 | 5.0 | 12.0 | 0.00 | 0.12 | 0.00 | 65 | 1007.0 |
| 20260510061553 | 45 | 136 | 7.0 | 12.0 | 0.00 | 0.12 | 0.00 | 65 | 1007.0 |
| 20260510061044 | 45 | 126 | 4.0 | 8.0 | 0.00 | 0.12 | 0.00 | 69 | 1006.9 |
| 20260510060546 | 44 | 112 | 4.0 | 11.0 | 0.00 | 0.12 | 0.00 | 69 | 1007.0 |
| 20260510060055 | 44 | 130 | 4.0 | 11.0 | 0.00 | 0.12 | 0.00 | 70 | 1007.0 |
| 20260510055542 | 43 | 110 | 3.0 | 7.0 | 0.00 | 0.12 | 0.00 | 72 | 1007.0 |
| 20260510055042 | 43 | 100 | 2.0 | 7.0 | 0.00 | 0.12 | 0.00 | 75 | 1007.0 |
| 20260510054549 | 43 | 113 | 3.0 | 7.0 | 0.00 | 0.12 | 0.00 | 75 | 1007.1 |
| 20260510054042 | 43 | 95 | 1.0 | 7.0 | 0.00 | 0.12 | 0.00 | 77 | 1007.0 |
| 20260510053541 | 42 | 96 | 1.0 | 7.0 | 0.00 | 0.12 | 0.00 | 78 | 1007.2 |
| 20260510053054 | 42 | 0 | 1.0 | 7.0 | 0.00 | 0.12 | 0.00 | 78 | 1007.2 |
| 20260510052543 | 42 | 0 | 0.0 | 4.0 | 0.00 | 0.12 | 0.00 | 77 | 1007.2 |
| 20260510052042 | 42 | 123 | 0.0 | 4.0 | 0.00 | 0.12 | 0.00 | 78 | 1007.2 |
| 20260510051605 | 42 | 103 | 0.0 | 3.0 | 0.00 | 0.12 | 0.00 | 78 | 1007.2 |
| 20260510051041 | 42 | 106 | 0.0 | 4.0 | 0.00 | 0.12 | 0.00 | 78 | 1007.2 |
| 20260510050543 | 42 | 0 | 0.0 | 6.0 | 0.00 | 0.12 | 0.00 | 78 | 1007.3 |
| 20260510050059 | 42 | 0 | 0.0 | 7.0 | 0.00 | 0.12 | 0.00 | 78 | 1007.3 |
| 20260510045544 | 42 | 116 | 2.0 | 7.0 | 0.00 | 0.12 | 0.00 | 77 | 1007.4 |
| 20260510045043 | 41 | 117 | 2.0 | 7.0 | 0.00 | 0.12 | 0.00 | 77 | 1007.3 |
| 20260510044557 | 41 | 109 | 2.0 | 7.0 | 0.00 | 0.12 | 0.00 | 78 | 1007.4 |
| 20260510044043 | 41 | 107 | 1.0 | 7.0 | 0.00 | 0.12 | 0.00 | 79 | 1007.3 |
| 20260510043543 | 41 | 0 | 0.0 | 7.0 | 0.00 | 0.12 | 0.00 | 80 | 1007.4 |
| 20260510043049 | 41 | 102 | 0.0 | 7.0 | 0.00 | 0.12 | 0.00 | 79 | 1007.5 |
| 20260510042545 | 41 | 115 | 2.0 | 6.0 | 0.00 | 0.12 | 0.00 | 79 | 1007.6 |
| 20260510042042 | 40 | 120 | 1.0 | 4.0 | 0.00 | 0.12 | 0.00 | 80 | 1007.6 |
| 20260510041604 | 40 | 296 | 0.0 | 2.0 | 0.00 | 0.12 | 0.00 | 80 | 1007.8 |
| 20260510041046 | 40 | 0 | 0.0 | 2.0 | 0.00 | 0.12 | 0.00 | 80 | 1007.8 |
| 20260510040542 | 40 | 295 | 0.0 | 3.0 | 0.00 | 0.12 | 0.00 | 80 | 1008.0 |
| 20260510040056 | 40 | 0 | 0.0 | 8.0 | 0.00 | 0.12 | 0.00 | 80 | 1008.0 |
| 20260510035542 | 40 | 0 | 1.0 | 8.0 | 0.00 | 0.12 | 0.00 | 80 | 1008.0 |
| 20260510035042 | 39 | 121 | 1.0 | 3.0 | 0.00 | 0.12 | 0.00 | 80 | 1008.1 |
| 20260510034600 | 39 | 40 | 1.0 | 3.0 | 0.00 | 0.12 | 0.00 | 80 | 1008.2 |
| 20260510034043 | 39 | 0 | 0.0 | 7.0 | 0.00 | 0.12 | 0.00 | 81 | 1008.2 |
| 20260510033543 | 39 | 0 | 1.0 | 7.0 | 0.00 | 0.12 | 0.00 | 81 | 1008.3 |
| 20260510033054 | 39 | 0 | 0.0 | 2.0 | 0.00 | 0.12 | 0.00 | 81 | 1008.2 |
| 20260510032544 | 39 | 0 | 0.0 | 3.0 | 0.00 | 0.12 | 0.00 | 81 | 1008.2 |
| 20260510032044 | 39 | 0 | 0.0 | 3.0 | 0.00 | 0.12 | 0.00 | 81 | 1008.3 |
| 20260510031557 | 39 | 0 | 0.0 | 1.0 | 0.00 | 0.12 | 0.00 | 81 | 1008.4 |
| 20260510031044 | 39 | 0 | 0.0 | 0.0 | 0.00 | 0.12 | 0.00 | 81 | 1008.4 |
| 20260510030542 | 39 | 0 | 0.0 | 0.0 | 0.00 | 0.12 | 0.00 | 82 | 1008.5 |
| 20260510030103 | 39 | 0 | 0.0 | 0.0 | 0.00 | 0.12 | 0.00 | 81 | 1008.6 |
| 20260510025542 | 39 | 0 | 0.0 | 0.0 | 0.00 | 0.12 | 0.00 | 81 | 1008.6 |
| 20260510025045 | 39 | 0 | 0.0 | 0.0 | 0.00 | 0.12 | 0.00 | 81 | 1008.9 |
| 20260510024553 | 39 | 0 | 0.0 | 0.0 | 0.00 | 0.12 | 0.00 | 81 | 1009.0 |
| 20260510024045 | 39 | 0 | 0.0 | 0.0 | 0.00 | 0.12 | 0.00 | 81 | 1009.1 |
| 20260510023546 | 39 | 0 | 0.0 | 0.0 | 0.00 | 0.12 | 0.00 | 81 | 1009.1 |
| 20260510023047 | 39 | 0 | 0.0 | 0.0 | 0.00 | 0.12 | 0.00 | 81 | 1009.2 |
| 20260510022542 | 39 | 0 | 0.0 | 0.0 | 0.00 | 0.12 | 0.00 | 81 | 1009.2 |
| 20260510022043 | 39 | 0 | 0.0 | 0.0 | 0.00 | 0.12 | 0.00 | 81 | 1009.4 |
| 20260510021552 | 39 | 0 | 0.0 | 0.0 | 0.00 | 0.12 | 0.00 | 81 | 1009.4 |
| 20260510021041 | 39 | 0 | 0.0 | 0.0 | 0.00 | 0.12 | 0.00 | 81 | 1009.5 |
| 20260510020542 | 39 | 0 | 0.0 | 0.0 | 0.00 | 0.12 | 0.00 | 81 | 1009.5 |
| 20260510020047 | 39 | 0 | 0.0 | 0.0 | 0.00 | 0.12 | 0.00 | 81 | 1009.6 |
| 20260510015543 | 40 | 0 | 0.0 | 0.0 | 0.00 | 0.12 | 0.00 | 81 | 1009.6 |
| 20260510015042 | 40 | 0 | 0.0 | 0.0 | 0.00 | 0.12 | 0.00 | 81 | 1009.8 |
| 20260510014556 | 40 | 0 | 0.0 | 0.0 | 0.00 | 0.12 | 0.00 | 81 | 1009.9 |
| 20260510014043 | 40 | 0 | 0.0 | 0.0 | 0.00 | 0.12 | 0.00 | 81 | 1010.0 |
| 20260510013543 | 40 | 0 | 0.0 | 0.0 | 0.00 | 0.12 | 0.00 | 81 | 1010.0 |
| 20260510013052 | 40 | 0 | 0.0 | 0.0 | 0.00 | 0.12 | 0.00 | 81 | 1010.1 |
| 20260510012542 | 40 | 0 | 0.0 | 0.0 | 0.00 | 0.12 | 0.00 | 81 | 1010.2 |
| 20260510012042 | 40 | 0 | 0.0 | 0.0 | 0.00 | 0.12 | 0.00 | 81 | 1010.3 |
| 20260510011549 | 40 | 0 | 0.0 | 0.0 | 0.00 | 0.12 | 0.00 | 81 | 1010.3 |
| 20260510011043 | 40 | 0 | 0.0 | 0.0 | 0.00 | 0.12 | 0.00 | 81 | 1010.5 |
| 20260510010542 | 40 | 0 | 0.0 | 0.0 | 0.00 | 0.12 | 0.00 | 81 | 1010.5 |
| 20260510010052 | 40 | 0 | 0.0 | 0.0 | 0.00 | 0.12 | 0.00 | 81 | 1010.6 |
| 20260510005542 | 40 | 0 | 0.0 | 0.0 | 0.00 | 0.12 | 0.00 | 81 | 1010.6 |
| 20260510005043 | 40 | 0 | 0.0 | 0.0 | 0.00 | 0.12 | 0.00 | 81 | 1010.8 |
| 20260510004553 | 40 | 0 | 0.0 | 0.0 | 0.00 | 0.12 | 0.00 | 82 | 1010.8 |
| 20260510004042 | 40 | 0 | 0.0 | 0.0 | 0.00 | 0.12 | 0.00 | 82 | 1010.8 |
| 20260510003551 | 40 | 0 | 0.0 | 0.0 | 0.00 | 0.12 | 0.00 | 81 | 1011.0 |
| 20260510003057 | 40 | 0 | 0.0 | 0.0 | 0.00 | 0.12 | 0.00 | 81 | 1011.0 |
| 20260510002542 | 40 | 0 | 0.0 | 0.0 | 0.00 | 0.12 | 0.00 | 82 | 1011.1 |
| 20260510002041 | 40 | 0 | 0.0 | 0.0 | 0.00 | 0.12 | 0.00 | 82 | 1011.1 |
| 20260510001551 | 40 | 0 | 0.0 | 0.0 | 0.00 | 0.12 | 0.00 | 82 | 1011.2 |
| 20260510001043 | 40 | 0 | 0.0 | 0.0 | 0.00 | 0.12 | 0.00 | 82 | 1011.2 |
| 20260510000557 | 40 | 0 | 0.0 | 0.0 | 0.00 | 0.12 | 0.00 | 82 | 1011.2 |
| 20260510000058 | 40 | 0 | 0.0 | 0.0 | 0.00 | 0.12 | 0.00 | 83 | 1011.3 |
| 20260509235543 | 40 | 0 | 0.0 | 0.0 | 0.00 | 0.12 | 0.00 | 83 | 1011.2 |
| 20260509235042 | 40 | 0 | 0.0 | 0.0 | 0.00 | 0.12 | 0.00 | 83 | 1011.5 |
| 20260509234559 | 40 | 0 | 0.0 | 0.0 | 0.00 | 0.12 | 0.00 | 82 | 1011.4 |
| 20260509234042 | 40 | 0 | 0.0 | 0.0 | 0.00 | 0.12 | 0.00 | 83 | 1011.4 |
| 20260509233542 | 40 | 0 | 0.0 | 0.0 | 0.00 | 0.12 | 0.00 | 83 | 1011.4 |
| 20260509233050 | 40 | 0 | 0.0 | 0.0 | 0.00 | 0.12 | 0.00 | 83 | 1011.4 |
| 20260509232542 | 41 | 0 | 0.0 | 0.0 | 0.00 | 0.12 | 0.00 | 83 | 1011.6 |
| 20260509232041 | 41 | 0 | 0.0 | 0.0 | 0.00 | 0.12 | 0.00 | 82 | 1011.7 |
| 20260509231607 | 41 | 0 | 0.0 | 0.0 | 0.00 | 0.12 | 0.00 | 82 | 1011.8 |
| 20260509231045 | 41 | 0 | 0.0 | 0.0 | 0.00 | 0.12 | 0.00 | 82 | 1011.8 |
| 20260509230542 | 41 | 0 | 0.0 | 0.0 | 0.00 | 0.12 | 0.00 | 82 | 1011.8 |
| 20260509230103 | 41 | 0 | 0.0 | 0.0 | 0.00 | 0.12 | 0.00 | 82 | 1011.9 |
| 20260509225541 | 41 | 0 | 0.0 | 0.0 | 0.00 | 0.12 | 0.00 | 82 | 1011.9 |
| 20260509225041 | 41 | 0 | 0.0 | 0.0 | 0.00 | 0.12 | 0.00 | 82 | 1012.1 |
| 20260509224551 | 41 | 0 | 0.0 | 0.0 | 0.00 | 0.12 | 0.00 | 82 | 1012.1 |
| 20260509224046 | 41 | 0 | 0.0 | 0.0 | 0.00 | 0.12 | 0.00 | 83 | 1012.2 |
| 20260509223542 | 41 | 0 | 0.0 | 0.0 | 0.00 | 0.12 | 0.00 | 83 | 1012.1 |
| 20260509223048 | 41 | 0 | 0.0 | 0.0 | 0.00 | 0.12 | 0.00 | 83 | 1012.2 |
| 20260509222545 | 41 | 0 | 0.0 | 0.0 | 0.00 | 0.12 | 0.00 | 83 | 1012.2 |
| 20260509222043 | 41 | 0 | 0.0 | 0.0 | 0.00 | 0.12 | 0.00 | 83 | 1012.1 |
| 20260509221546 | 41 | 0 | 0.0 | 0.0 | 0.00 | 0.12 | 0.00 | 83 | 1012.4 |
| 20260509221046 | 41 | 0 | 0.0 | 0.0 | 0.00 | 0.12 | 0.00 | 83 | 1012.7 |
| 20260509220542 | 41 | 0 | 0.0 | 0.0 | 0.00 | 0.12 | 0.00 | 83 | 1012.4 |
| 20260509220050 | 41 | 0 | 0.0 | 0.0 | 0.00 | 0.12 | 0.00 | 82 | 1012.8 |
| 20260509215542 | 41 | 0 | 0.0 | 0.0 | 0.00 | 0.12 | 0.12 | 81 | 1012.9 |
| 20260509215042 | 41 | 0 | 0.0 | 0.0 | 0.00 | 0.12 | 0.12 | 82 | 1012.9 |
| 20260509214545 | 41 | 0 | 0.0 | 0.0 | 0.00 | 0.12 | 0.12 | 82 | 1013.0 |
| 20260509214042 | 41 | 0 | 0.0 | 0.0 | 0.00 | 0.12 | 0.12 | 81 | 1013.0 |
| 20260509213542 | 41 | 0 | 0.0 | 0.0 | 0.00 | 0.12 | 0.12 | 81 | 1013.0 |
| 20260509213049 | 41 | 0 | 0.0 | 0.0 | 0.00 | 0.12 | 0.12 | 81 | 1013.0 |
| 20260509212541 | 41 | 0 | 0.0 | 0.0 | 0.00 | 0.12 | 0.12 | 82 | 1013.0 |
| 20260509212045 | 41 | 0 | 0.0 | 0.0 | 0.00 | 0.12 | 0.12 | 82 | 1012.9 |
| 20260509211552 | 41 | 0 | 0.0 | 0.0 | 0.00 | 0.12 | 0.12 | 82 | 1012.9 |
| 20260509211048 | 41 | 0 | 0.0 | 0.0 | 0.01 | 0.12 | 0.12 | 82 | 1013.0 |
| 20260509210543 | 40 | 0 | 0.0 | 0.0 | 0.01 | 0.12 | 0.12 | 82 | 1013.0 |
| 20260509210105 | 40 | 0 | 0.0 | 1.0 | 0.02 | 0.12 | 0.12 | 82 | 1013.0 |
| 20260509205544 | 40 | 0 | 0.0 | 4.0 | 0.02 | 0.12 | 0.12 | 82 | 1013.2 |
| 20260509205042 | 40 | 0 | 0.0 | 7.0 | 0.02 | 0.12 | 0.12 | 82 | 1013.2 |
| 20260509204553 | 40 | 295 | 2.0 | 7.0 | 0.02 | 0.11 | 0.11 | 82 | 1013.3 |
| 20260509204042 | 40 | 273 | 2.0 | 9.0 | 0.03 | 0.11 | 0.11 | 82 | 1013.3 |
| 20260509203546 | 40 | 248 | 2.0 | 10.0 | 0.03 | 0.11 | 0.11 | 82 | 1013.4 |
| 20260509203048 | 40 | 278 | 3.0 | 11.0 | 0.03 | 0.11 | 0.11 | 82 | 1013.4 |
| 20260509202542 | 40 | 246 | 5.0 | 13.0 | 0.03 | 0.11 | 0.11 | 82 | 1013.4 |
| 20260509202044 | 40 | 295 | 5.0 | 13.0 | 0.05 | 0.11 | 0.11 | 82 | 1013.4 |
| 20260509201559 | 41 | 269 | 6.0 | 13.0 | 0.05 | 0.11 | 0.11 | 83 | 1013.5 |
| 20260509201041 | 41 | 275 | 6.0 | 14.0 | 0.05 | 0.11 | 0.11 | 83 | 1013.5 |
| 20260509200541 | 41 | 247 | 7.0 | 14.0 | 0.05 | 0.11 | 0.11 | 82 | 1013.6 |
| 20260509200052 | 41 | 207 | 8.0 | 13.0 | 0.04 | 0.10 | 0.10 | 82 | 1013.6 |
| 20260509195546 | 41 | 243 | 8.0 | 18.0 | 0.05 | 0.10 | 0.10 | 81 | 1013.6 |
| 20260509195042 | 42 | 263 | 8.0 | 18.0 | 0.05 | 0.10 | 0.10 | 81 | 1013.7 |
| 20260509194550 | 42 | 234 | 11.0 | 18.0 | 0.04 | 0.09 | 0.09 | 80 | 1013.7 |
| 20260509194045 | 43 | 256 | 9.0 | 18.0 | 0.03 | 0.08 | 0.08 | 80 | 1013.8 |
| 20260509193542 | 43 | 259 | 7.0 | 18.0 | 0.04 | 0.08 | 0.08 | 79 | 1013.6 |
| 20260509193057 | 44 | 246 | 10.0 | 20.0 | 0.03 | 0.07 | 0.07 | 77 | 1013.7 |
| 20260509192543 | 45 | 279 | 9.0 | 20.0 | 0.03 | 0.07 | 0.07 | 77 | 1013.8 |
| 20260509192043 | 46 | 161 | 2.0 | 5.0 | 0.03 | 0.06 | 0.06 | 78 | 1013.7 |
| 20260509191553 | 46 | 0 | 0.0 | 0.0 | 0.03 | 0.06 | 0.06 | 77 | 1013.5 |
| 20260509191042 | 46 | 0 | 0.0 | 1.0 | 0.02 | 0.05 | 0.05 | 76 | 1013.4 |
| 20260509190541 | 46 | 0 | 0.0 | 1.0 | 0.02 | 0.05 | 0.05 | 76 | 1013.4 |
| 20260509190104 | 47 | 0 | 0.0 | 1.0 | 0.02 | 0.05 | 0.05 | 76 | 1013.4 |
| 20260509185542 | 47 | 0 | 0.0 | 1.0 | 0.02 | 0.04 | 0.04 | 76 | 1013.3 |
| 20260509185042 | 47 | 0 | 0.0 | 1.0 | 0.02 | 0.04 | 0.04 | 76 | 1013.3 |
| 20260509184552 | 47 | 0 | 0.0 | 0.0 | 0.02 | 0.04 | 0.04 | 76 | 1013.3 |
| 20260509184041 | 47 | 0 | 0.0 | 0.0 | 0.01 | 0.03 | 0.03 | 76 | 1013.3 |
| 20260509183543 | 47 | 0 | 0.0 | 0.0 | 0.01 | 0.03 | 0.03 | 76 | 1013.3 |
| 20260509183048 | 47 | 0 | 0.0 | 0.0 | 0.02 | 0.03 | 0.03 | 76 | 1013.3 |
| 20260509182542 | 47 | 0 | 0.0 | 0.0 | 0.02 | 0.03 | 0.03 | 76 | 1013.4 |
| 20260509182041 | 47 | 0 | 0.0 | 0.0 | 0.01 | 0.03 | 0.03 | 76 | 1013.4 |
| 20260509181545 | 47 | 0 | 0.0 | 0.0 | 0.01 | 0.03 | 0.03 | 76 | 1013.5 |
| 20260509181042 | 47 | 0 | 0.0 | 0.0 | 0.02 | 0.03 | 0.03 | 76 | 1013.5 |
| 20260509180542 | 47 | 0 | 0.0 | 1.0 | 0.02 | 0.03 | 0.03 | 75 | 1013.5 |
| 20260509180100 | 47 | 0 | 0.0 | 1.0 | 0.02 | 0.03 | 0.03 | 75 | 1013.6 |
| 20260509175542 | 47 | 0 | 0.0 | 1.0 | 0.01 | 0.02 | 0.02 | 75 | 1013.6 |
| 20260509175042 | 47 | 0 | 0.0 | 1.0 | 0.01 | 0.02 | 0.02 | 75 | 1013.6 |
| 20260509174555 | 47 | 0 | 0.0 | 2.0 | 0.01 | 0.02 | 0.02 | 74 | 1013.6 |
| 20260509174042 | 47 | 0 | 0.0 | 2.0 | 0.01 | 0.02 | 0.02 | 74 | 1013.6 |
| 20260509173542 | 47 | 96 | 0.0 | 1.0 | 0.02 | 0.02 | 0.02 | 74 | 1013.7 |
| 20260509173057 | 47 | 96 | 0.0 | 2.0 | 0.01 | 0.01 | 0.01 | 74 | 1013.8 |
| 20260509172542 | 48 | 0 | 0.0 | 2.0 | 0.01 | 0.01 | 0.01 | 74 | 1013.8 |
| 20260509172043 | 48 | 96 | 0.0 | 2.0 | 0.01 | 0.01 | 0.01 | 74 | 1013.9 |
| 20260509171554 | 48 | 0 | 0.0 | 2.0 | 0.01 | 0.01 | 0.01 | 74 | 1013.9 |
| 20260509171044 | 48 | 0 | 0.0 | 2.0 | 0.00 | 0.00 | 0.00 | 74 | 1014.0 |
| 20260509170544 | 48 | 0 | 0.0 | 3.0 | 0.00 | 0.00 | 0.00 | 73 | 1014.1 |
| 20260509170101 | 48 | 0 | 0.0 | 3.0 | 0.00 | 0.00 | 0.00 | 73 | 1014.1 |
| 20260509165547 | 48 | 0 | 0.0 | 1.0 | 0.00 | 0.00 | 0.00 | 73 | 1014.2 |
| 20260509165043 | 48 | 0 | 0.0 | 2.0 | 0.00 | 0.00 | 0.00 | 73 | 1014.2 |
| 20260509164550 | 48 | 0 | 0.0 | 2.0 | 0.00 | 0.00 | 0.00 | 73 | 1014.2 |
| 20260509164043 | 48 | 0 | 0.0 | 3.0 | 0.00 | 0.00 | 0.00 | 73 | 1014.3 |
| 20260509163542 | 48 | 0 | 1.0 | 4.0 | 0.00 | 0.00 | 0.00 | 73 | 1014.3 |
| 20260509163102 | 48 | 98 | 1.0 | 4.0 | 0.00 | 0.00 | 0.00 | 72 | 1014.4 |
| 20260509162543 | 48 | 99 | 2.0 | 6.0 | 0.00 | 0.00 | 0.00 | 72 | 1014.5 |
| 20260509162043 | 48 | 97 | 1.0 | 6.0 | 0.00 | 0.00 | 0.00 | 72 | 1014.6 |
| 20260509161555 | 48 | 100 | 1.0 | 4.0 | 0.00 | 0.00 | 0.00 | 72 | 1014.6 |
| 20260509161043 | 48 | 97 | 1.0 | 7.0 | 0.00 | 0.00 | 0.00 | 71 | 1014.7 |
| 20260509160543 | 48 | 0 | 1.0 | 7.0 | 0.00 | 0.00 | 0.00 | 71 | 1014.7 |
| 20260509160057 | 49 | 98 | 0.0 | 4.0 | 0.00 | 0.00 | 0.00 | 71 | 1014.7 |
| 20260509155546 | 49 | 0 | 0.0 | 6.0 | 0.00 | 0.00 | 0.00 | 71 | 1014.9 |
| 20260509155047 | 49 | 96 | 0.0 | 6.0 | 0.00 | 0.00 | 0.00 | 70 | 1014.9 |
| 20260509154558 | 49 | 0 | 1.0 | 6.0 | 0.00 | 0.00 | 0.00 | 70 | 1015.0 |
| 20260509154043 | 49 | 0 | 0.0 | 6.0 | 0.00 | 0.00 | 0.00 | 70 | 1015.0 |
| 20260509153543 | 49 | 102 | 1.0 | 4.0 | 0.00 | 0.00 | 0.00 | 70 | 1015.1 |
| 20260509153050 | 49 | 103 | 0.0 | 4.0 | 0.00 | 0.00 | 0.00 | 68 | 1015.1 |
| 20260509152543 | 49 | 103 | 0.0 | 4.0 | 0.00 | 0.00 | 0.00 | 68 | 1015.2 |
| 20260509152043 | 50 | 90 | 0.0 | 3.0 | 0.00 | 0.00 | 0.00 | 67 | 1015.2 |
| 20260509151553 | 50 | 0 | 0.0 | 3.0 | 0.00 | 0.00 | 0.00 | 67 | 1015.2 |
| 20260509151042 | 50 | 0 | 0.0 | 2.0 | 0.00 | 0.00 | 0.00 | 67 | 1015.3 |
| 20260509150542 | 50 | 0 | 0.0 | 2.0 | 0.00 | 0.00 | 0.00 | 66 | 1015.3 |
| 20260509150106 | 50 | 0 | 0.0 | 0.0 | 0.00 | 0.00 | 0.00 | 66 | 1015.3 |
| 20260509145547 | 50 | 0 | 0.0 | 4.0 | 0.00 | 0.00 | 0.00 | 66 | 1015.5 |
| 20260509145044 | 50 | 0 | 0.0 | 5.0 | 0.00 | 0.00 | 0.00 | 65 | 1015.5 |
| 20260509144600 | 50 | 352 | 2.0 | 5.0 | 0.00 | 0.00 | 0.00 | 64 | 1015.5 |
| 20260509144045 | 50 | 346 | 0.0 | 3.0 | 0.00 | 0.00 | 0.00 | 63 | 1015.6 |
| 20260509143543 | 49 | 0 | 0.0 | 4.0 | 0.00 | 0.00 | 0.00 | 63 | 1015.8 |
| 20260509143053 | 50 | 134 | 1.0 | 4.0 | 0.00 | 0.00 | 0.00 | 62 | 1015.8 |
| 20260509142543 | 50 | 132 | 0.0 | 7.0 | 0.00 | 0.00 | 0.00 | 62 | 1015.7 |
| 20260509142043 | 50 | 127 | 2.0 | 7.0 | 0.00 | 0.00 | 0.00 | 62 | 1015.8 |
| 20260509141552 | 50 | 121 | 2.0 | 5.0 | 0.00 | 0.00 | 0.00 | 61 | 1015.8 |
| 20260509141043 | 50 | 174 | 1.0 | 3.0 | 0.00 | 0.00 | 0.00 | 61 | 1015.9 |
| 20260509140544 | 50 | 192 | 1.0 | 5.0 | 0.00 | 0.00 | 0.00 | 60 | 1015.9 |
| 20260509140058 | 50 | 225 | 2.0 | 7.0 | 0.00 | 0.00 | 0.00 | 61 | 1016.0 |
| 20260509135548 | 50 | 251 | 3.0 | 7.0 | 0.00 | 0.00 | 0.00 | 59 | 1015.8 |
| 20260509135046 | 50 | 249 | 4.0 | 7.0 | 0.00 | 0.00 | 0.00 | 59 | 1015.9 |
| 20260509134553 | 51 | 243 | 2.0 | 10.0 | 0.00 | 0.00 | 0.00 | 58 | 1016.0 |
| 20260509134043 | 51 | 144 | 4.0 | 10.0 | 0.00 | 0.00 | 0.00 | 57 | 1016.1 |
| 20260509133543 | 51 | 145 | 2.0 | 8.0 | 0.00 | 0.00 | 0.00 | 55 | 1016.1 |
| 20260509133059 | 52 | 214 | 4.0 | 8.0 | 0.00 | 0.00 | 0.00 | 54 | 1016.1 |
| 20260509132543 | 52 | 238 | 2.0 | 7.0 | 0.00 | 0.00 | 0.00 | 54 | 1016.1 |
| 20260509132044 | 52 | 0 | 1.0 | 6.0 | 0.00 | 0.00 | 0.00 | 54 | 1016.1 |
| 20260509131551 | 52 | 263 | 1.0 | 6.0 | 0.00 | 0.00 | 0.00 | 54 | 1016.1 |
| 20260509131043 | 52 | 0 | 0.0 | 6.0 | 0.00 | 0.00 | 0.00 | 54 | 1016.2 |
| 20260509130543 | 53 | 167 | 2.0 | 8.0 | 0.00 | 0.00 | 0.00 | 53 | 1016.2 |